New Liberty, Colorado
Current Conditions -  °F | °C
As of 2:53 PM on Friday 31 Oct 2014 (Local Time) from KGJT Reporting Station
Clear Clear  
Wind Chill: 66°   Ceiling: Unl
Heat Index: 66°   Visibility: 10mi
Dew Point: 27°   Wind: 8mph
Humidity: 23%   Direction: 280°W
Pressure: 30.07"   Gusts: NA
Location:  39.2664°N, 108.95°W
Report Text: KGJT 312053Z 28007KT 10SM CLR 19/M03 A3007 RMK AO2 SLP150 T01891028 56032
Loading
Personal Weather Stations






























Interactive Weather Map
Tropical Storm Tracking
New forecast layout! Learn more

10-Day Weather Forecast

Advertisements
Track Severe Weather on mobile